sensor_id;sensor_type;location;lat;lon;timestamp;pressure;altitude;pressure_sealevel;temperature;humidity
22031;BME280;11179;52.106;21.024;2023-05-11T00:01:23;100988.00;;;7.43;42.62
22031;BME280;11179;52.106;21.024;2023-05-11T00:03:49;100996.25;;;7.37;42.92
22031;BME280;11179;52.106;21.024;2023-05-11T00:06:14;100996.25;;;7.37;42.90
22031;BME280;11179;52.106;21.024;2023-05-11T00:08:40;101005.28;;;7.37;42.97
22031;BME280;11179;52.106;21.024;2023-05-11T00:11:08;101001.94;;;7.35;42.98
22031;BME280;11179;52.106;21.024;2023-05-11T00:13:33;100998.00;;;7.31;42.93
22031;BME280;11179;52.106;21.024;2023-05-11T00:15:59;101000.09;;;7.29;42.94
22031;BME280;11179;52.106;21.024;2023-05-11T00:18:24;100995.91;;;7.26;43.08
22031;BME280;11179;52.106;21.024;2023-05-11T00:20:49;100993.84;;;7.22;43.40
22031;BME280;11179;52.106;21.024;2023-05-11T00:23:15;101005.19;;;7.19;43.58
22031;BME280;11179;52.106;21.024;2023-05-11T00:25:40;100999.16;;;7.17;43.23
22031;BME280;11179;52.106;21.024;2023-05-11T00:28:05;100996.22;;;7.12;43.75
22031;BME280;11179;52.106;21.024;2023-05-11T00:30:32;101008.19;;;7.11;43.56
22031;BME280;11179;52.106;21.024;2023-05-11T00:32:57;100993.38;;;7.00;43.80
22031;BME280;11179;52.106;21.024;2023-05-11T00:35:23;100999.44;;;7.02;43.76
22031;BME280;11179;52.106;21.024;2023-05-11T00:37:48;101007.84;;;7.01;43.68
22031;BME280;11179;52.106;21.024;2023-05-11T00:40:14;100991.91;;;6.98;43.60
22031;BME280;11179;52.106;21.024;2023-05-11T00:42:39;100995.47;;;6.98;43.58
22031;BME280;11179;52.106;21.024;2023-05-11T00:45:05;100999.03;;;6.99;43.54
22031;BME280;11179;52.106;21.024;2023-05-11T00:47:30;100992.75;;;6.98;43.55
22031;BME280;11179;52.106;21.024;2023-05-11T00:49:57;100992.97;;;6.97;43.48
22031;BME280;11179;52.106;21.024;2023-05-11T00:52:22;100997.56;;;6.96;43.68
22031;BME280;11179;52.106;21.024;2023-05-11T00:54:48;100988.56;;;6.96;43.33
22031;BME280;11179;52.106;21.024;2023-05-11T00:57:13;100991.72;;;6.92;43.46
22031;BME280;11179;52.106;21.024;2023-05-11T00:59:39;100991.13;;;6.90;43.45
22031;BME280;11179;52.106;21.024;2023-05-11T01:02:05;100994.28;;;6.87;43.79
22031;BME280;11179;52.106;21.024;2023-05-11T01:04:31;100983.59;;;6.79;43.70
22031;BME280;11179;52.106;21.024;2023-05-11T01:07:27;100979.66;;;6.75;43.94
22031;BME280;11179;52.106;21.024;2023-05-11T01:10:18;100984.91;;;6.70;44.06
22031;BME280;11179;52.106;21.024;2023-05-11T01:13:23;100985.34;;;6.67;44.27
22031;BME280;11179;52.106;21.024;2023-05-11T01:15:53;100994.22;;;6.63;45.62
22031;BME280;11179;52.106;21.024;2023-05-11T01:20:58;100983.94;;;6.58;44.99
22031;BME280;11179;52.106;21.024;2023-05-11T01:26:09;100987.97;;;6.49;44.94
22031;BME280;11179;52.106;21.024;2023-05-11T01:31:29;100973.13;;;6.38;44.73
22031;BME280;11179;52.106;21.024;2023-05-11T01:34:03;100987.34;;;6.40;44.79
22031;BME280;11179;52.106;21.024;2023-05-11T01:36:36;100980.06;;;6.34;45.12
22031;BME280;11179;52.106;21.024;2023-05-11T01:39:08;100985.72;;;6.33;45.03
22031;BME280;11179;52.106;21.024;2023-05-11T01:41:36;100980.25;;;6.26;44.90
22031;BME280;11179;52.106;21.024;2023-05-11T01:44:05;100978.81;;;6.23;45.10
22031;BME280;11179;52.106;21.024;2023-05-11T01:46:32;100976.72;;;6.19;45.10
22031;BME280;11179;52.106;21.024;2023-05-11T01:49:00;100980.50;;;6.18;45.31
22031;BME280;11179;52.106;21.024;2023-05-11T01:51:30;100974.63;;;6.14;45.21
22031;BME280;11179;52.106;21.024;2023-05-11T01:53:58;100976.72;;;6.12;45.38
22031;BME280;11179;52.106;21.024;2023-05-11T01:56:25;100982.78;;;6.14;45.06
22031;BME280;11179;52.106;21.024;2023-05-11T01:58:53;100975.06;;;6.11;45.34
22031;BME280;11179;52.106;21.024;2023-05-11T02:01:20;100982.63;;;6.09;45.38
22031;BME280;11179;52.106;21.024;2023-05-11T02:03:46;100970.66;;;6.04;45.46
22031;BME280;11179;52.106;21.024;2023-05-11T02:06:13;100977.38;;;6.01;45.58
22031;BME280;11179;52.106;21.024;2023-05-11T02:08:40;100972.13;;;6.00;45.68
22031;BME280;11179;52.106;21.024;2023-05-11T02:11:07;100979.69;;;6.04;45.67
22031;BME280;11179;52.106;21.024;2023-05-11T02:13:35;100981.78;;;6.02;45.63
22031;BME280;11179;52.106;21.024;2023-05-11T02:16:03;100978.22;;;6.02;45.51
22031;BME280;11179;52.106;21.024;2023-05-11T02:18:30;100963.38;;;5.91;45.57
22031;BME280;11179;52.106;21.024;2023-05-11T02:20:57;100964.41;;;5.90;45.58
22031;BME280;11179;52.106;21.024;2023-05-11T02:23:24;100978.88;;;5.97;45.72
22031;BME280;11179;52.106;21.024;2023-05-11T02:25:52;100982.03;;;5.94;45.82
22031;BME280;11179;52.106;21.024;2023-05-11T02:28:18;100975.97;;;5.85;45.99
22031;BME280;11179;52.106;21.024;2023-05-11T02:30:45;100972.19;;;5.80;46.00
22031;BME280;11179;52.106;21.024;2023-05-11T02:33:19;100986.88;;;5.79;46.15
22031;BME280;11179;52.106;21.024;2023-05-11T02:35:47;100969.28;;;5.68;46.18
22031;BME280;11179;52.106;21.024;2023-05-11T02:38:14;100986.44;;;5.75;46.50
22031;BME280;11179;52.106;21.024;2023-05-11T02:40:45;100972.00;;;5.68;46.19
22031;BME280;11179;52.106;21.024;2023-05-11T02:43:14;100982.88;;;5.75;46.35
22031;BME280;11179;52.106;21.024;2023-05-11T02:45:43;100977.88;;;5.72;46.17
22031;BME280;11179;52.106;21.024;2023-05-11T02:48:18;100982.50;;;5.71;46.43
22031;BME280;11179;52.106;21.024;2023-05-11T02:50:45;100984.97;;;5.73;46.18
22031;BME280;11179;52.106;21.024;2023-05-11T02:53:14;100986.66;;;5.74;46.25
22031;BME280;11179;52.106;21.024;2023-05-11T02:55:41;100992.94;;;5.74;46.19
22031;BME280;11179;52.106;21.024;2023-05-11T02:58:07;100980.81;;;5.70;46.26
22031;BME280;11179;52.106;21.024;2023-05-11T03:00:33;100986.88;;;5.72;46.44
22031;BME280;11179;52.106;21.024;2023-05-11T03:02:58;100991.50;;;5.72;46.45
22031;BME280;11179;52.106;21.024;2023-05-11T03:05:24;100986.88;;;5.72;46.49
22031;BME280;11179;52.106;21.024;2023-05-11T03:07:51;100979.34;;;5.68;46.38
22031;BME280;11179;52.106;21.024;2023-05-11T03:10:16;100988.53;;;5.73;46.40
22031;BME280;11179;52.106;21.024;2023-05-11T03:12:42;100989.81;;;5.77;46.49
22031;BME280;11179;52.106;21.024;2023-05-11T03:15:08;100989.19;;;5.82;46.32
22031;BME280;11179;52.106;21.024;2023-05-11T03:17:36;100984.97;;;5.86;46.41
22031;BME280;11179;52.106;21.024;2023-05-11T03:20:04;100989.78;;;5.91;46.09
22031;BME280;11179;52.106;21.024;2023-05-11T03:22:30;100991.47;;;5.98;46.02
22031;BME280;11179;52.106;21.024;2023-05-11T03:24:56;100995.22;;;6.10;46.17
22031;BME280;11179;52.106;21.024;2023-05-11T03:27:23;100991.78;;;6.28;46.12
22031;BME280;11179;52.106;21.024;2023-05-11T03:29:51;100998.81;;;6.62;45.88
22031;BME280;11179;52.106;21.024;2023-05-11T03:32:17;100998.00;;;7.00;45.56
22031;BME280;11179;52.106;21.024;2023-05-11T03:34:42;101004.00;;;7.40;45.00
22031;BME280;11179;52.106;21.024;2023-05-11T03:37:09;100986.72;;;7.71;44.74
22031;BME280;11179;52.106;21.024;2023-05-11T03:39:37;100999.78;;;8.12;44.36
22031;BME280;11179;52.106;21.024;2023-05-11T03:42:04;101001.09;;;8.46;43.84
22031;BME280;11179;52.106;21.024;2023-05-11T03:44:31;100999.84;;;8.78;43.21
22031;BME280;11179;52.106;21.024;2023-05-11T03:46:58;101003.41;;;9.08;42.84
22031;BME280;11179;52.106;21.024;2023-05-11T03:49:24;101009.84;;;9.44;42.27
22031;BME280;11179;52.106;21.024;2023-05-11T03:51:51;101005.88;;;9.82;41.65
22031;BME280;11179;52.106;21.024;2023-05-11T03:54:17;100998.69;;;10.04;41.21
22031;BME280;11179;52.106;21.024;2023-05-11T03:56:42;101008.22;;;10.36;41.07
22031;BME280;11179;52.106;21.024;2023-05-11T03:59:08;101004.09;;;10.62;40.59
22031;BME280;11179;52.106;21.024;2023-05-11T04:01:42;101010.47;;;10.91;40.33
22031;BME280;11179;52.106;21.024;2023-05-11T04:04:08;101003.56;;;11.17;39.94
22031;BME280;11179;52.106;21.024;2023-05-11T04:06:33;100996.56;;;11.26;39.27
22031;BME280;11179;52.106;21.024;2023-05-11T04:08:58;101012.00;;;11.44;38.70
22031;BME280;11179;52.106;21.024;2023-05-11T04:11:24;101006.75;;;11.59;38.77
22031;BME280;11179;52.106;21.024;2023-05-11T04:13:51;100996.25;;;11.73;38.24
22031;BME280;11179;52.106;21.024;2023-05-11T04:16:16;101007.41;;;12.00;38.09
22031;BME280;11179;52.106;21.024;2023-05-11T04:18:42;100999.13;;;12.16;37.72
22031;BME280;11179;52.106;21.024;2023-05-11T04:21:07;101007.84;;;12.30;36.63
22031;BME280;11179;52.106;21.024;2023-05-11T04:23:33;101013.00;;;12.43;35.90
22031;BME280;11179;52.106;21.024;2023-05-11T04:25:58;101003.91;;;12.43;36.31
22031;BME280;11179;52.106;21.024;2023-05-11T04:28:23;101003.09;;;12.64;36.14
22031;BME280;11179;52.106;21.024;2023-05-11T04:30:55;100993.03;;;12.75;34.85
22031;BME280;11179;52.106;21.024;2023-05-11T04:33:22;100975.00;;;12.89;35.27
22031;BME280;11179;52.106;21.024;2023-05-11T04:35:51;101009.78;;;13.17;34.40
22031;BME280;11179;52.106;21.024;2023-05-11T04:38:18;101008.97;;;13.21;34.50
22031;BME280;11179;52.106;21.024;2023-05-11T04:40:43;101000.84;;;13.37;34.22
22031;BME280;11179;52.106;21.024;2023-05-11T04:43:09;101006.69;;;13.67;33.74
22031;BME280;11179;52.106;21.024;2023-05-11T04:45:34;101011.75;;;13.80;32.97
22031;BME280;11179;52.106;21.024;2023-05-11T04:48:00;101014.09;;;13.98;33.05
22031;BME280;11179;52.106;21.024;2023-05-11T04:50:25;101014.31;;;13.92;32.59
22031;BME280;11179;52.106;21.024;2023-05-11T04:52:50;101016.91;;;14.03;32.38
22031;BME280;11179;52.106;21.024;2023-05-11T04:55:16;101016.09;;;14.08;32.05
22031;BME280;11179;52.106;21.024;2023-05-11T04:57:41;101023.41;;;14.24;31.93
22031;BME280;11179;52.106;21.024;2023-05-11T05:00:07;101023.53;;;14.55;31.69
22031;BME280;11179;52.106;21.024;2023-05-11T05:02:33;101023.53;;;14.55;31.52
22031;BME280;11179;52.106;21.024;2023-05-11T05:04:59;101018.03;;;14.55;31.59
22031;BME280;11179;52.106;21.024;2023-05-11T05:07:25;101025.41;;;14.96;30.94
22031;BME280;11179;52.106;21.024;2023-05-11T05:09:51;101024.78;;;14.74;30.47
22031;BME280;11179;52.106;21.024;2023-05-11T05:12:16;101033.91;;;14.74;30.92
22031;BME280;11179;52.106;21.024;2023-05-11T05:14:42;101021.91;;;15.26;30.66
22031;BME280;11179;52.106;21.024;2023-05-11T05:17:07;101006.41;;;15.45;30.15
22031;BME280;11179;52.106;21.024;2023-05-11T05:19:32;101009.75;;;15.58;29.96
22031;BME280;11179;52.106;21.024;2023-05-11T05:21:58;101028.91;;;15.79;29.65
22031;BME280;11179;52.106;21.024;2023-05-11T05:24:23;101019.44;;;15.50;29.54
22031;BME280;11179;52.106;21.024;2023-05-11T05:26:48;101038.53;;;15.41;30.10
22031;BME280;11179;52.106;21.024;2023-05-11T05:29:14;101023.56;;;15.32;29.87
22031;BME280;11179;52.106;21.024;2023-05-11T05:31:39;101012.56;;;15.73;29.81
22031;BME280;11179;52.106;21.024;2023-05-11T05:34:04;101018.38;;;15.97;29.52
22031;BME280;11179;52.106;21.024;2023-05-11T05:36:30;101022.13;;;16.62;29.37
22031;BME280;11179;52.106;21.024;2023-05-11T05:38:56;101019.13;;;17.12;28.98
22031;BME280;11179;52.106;21.024;2023-05-11T05:41:22;101030.13;;;17.28;28.55
22031;BME280;11179;52.106;21.024;2023-05-11T05:43:47;101038.78;;;17.65;28.06
22031;BME280;11179;52.106;21.024;2023-05-11T05:46:13;101032.13;;;18.24;27.79
22031;BME280;11179;52.106;21.024;2023-05-11T05:48:39;101028.16;;;18.35;27.21
22031;BME280;11179;52.106;21.024;2023-05-11T05:51:04;101031.50;;;18.61;27.33
22031;BME280;11179;52.106;21.024;2023-05-11T05:53:30;101032.28;;;18.38;26.95
22031;BME280;11179;52.106;21.024;2023-05-11T05:55:55;101033.44;;;18.37;27.33
22031;BME280;11179;52.106;21.024;2023-05-11T05:58:20;101029.59;;;18.56;26.57
22031;BME280;11179;52.106;21.024;2023-05-11T06:00:45;101035.00;;;18.48;26.81
22031;BME280;11179;52.106;21.024;2023-05-11T06:03:11;101034.50;;;18.88;26.66
22031;BME280;11179;52.106;21.024;2023-05-11T06:05:36;101036.50;;;19.44;26.25
22031;BME280;11179;52.106;21.024;2023-05-11T06:08:02;101036.06;;;19.37;25.60
22031;BME280;11179;52.106;21.024;2023-05-11T06:10:27;101032.19;;;19.70;25.74
22031;BME280;11179;52.106;21.024;2023-05-11T06:12:52;101032.59;;;19.83;25.42
22031;BME280;11179;52.106;21.024;2023-05-11T06:15:18;101034.19;;;19.32;25.16
22031;BME280;11179;52.106;21.024;2023-05-11T06:17:43;101038.34;;;19.35;25.40
22031;BME280;11179;52.106;21.024;2023-05-11T06:20:08;101035.38;;;19.45;25.28
22031;BME280;11179;52.106;21.024;2023-05-11T06:22:34;101043.50;;;19.79;25.03
22031;BME280;11179;52.106;21.024;2023-05-11T06:24:59;101034.84;;;19.62;24.48
22031;BME280;11179;52.106;21.024;2023-05-11T06:27:25;101044.75;;;19.54;24.41
22031;BME280;11179;52.106;21.024;2023-05-11T06:29:50;101041.97;;;19.54;24.15
22031;BME280;11179;52.106;21.024;2023-05-11T06:32:15;101016.13;;;20.00;24.21
22031;BME280;11179;52.106;21.024;2023-05-11T06:34:41;101041.66;;;20.07;24.00
22031;BME280;11179;52.106;21.024;2023-05-11T06:37:06;101023.59;;;19.86;23.84
22031;BME280;11179;52.106;21.024;2023-05-11T06:39:35;101041.78;;;19.64;24.20
22031;BME280;11179;52.106;21.024;2023-05-11T06:42:02;101027.38;;;19.76;24.44
22031;BME280;11179;52.106;21.024;2023-05-11T06:44:27;101041.38;;;20.09;23.49
22031;BME280;11179;52.106;21.024;2023-05-11T06:46:52;101032.59;;;20.15;23.48
22031;BME280;11179;52.106;21.024;2023-05-11T06:49:17;101042.13;;;19.95;22.94
22031;BME280;11179;52.106;21.024;2023-05-11T06:51:43;101033.00;;;19.90;23.20
22031;BME280;11179;52.106;21.024;2023-05-11T06:54:08;101034.50;;;20.33;23.07
22031;BME280;11179;52.106;21.024;2023-05-11T06:56:33;101038.47;;;20.14;22.42
22031;BME280;11179;52.106;21.024;2023-05-11T06:58:59;101029.31;;;19.94;22.94
22031;BME280;11179;52.106;21.024;2023-05-11T07:01:24;101027.53;;;20.17;22.60
22031;BME280;11179;52.106;21.024;2023-05-11T07:03:53;101037.28;;;20.33;22.72
22031;BME280;11179;52.106;21.024;2023-05-11T07:06:18;101050.53;;;20.69;21.90
22031;BME280;11179;52.106;21.024;2023-05-11T07:08:44;101044.88;;;20.14;21.98
22031;BME280;11179;52.106;21.024;2023-05-11T07:11:09;101041.00;;;20.43;22.00
22031;BME280;11179;52.106;21.024;2023-05-11T07:13:37;101039.19;;;20.79;22.04
22031;BME280;11179;52.106;21.024;2023-05-11T07:16:02;101033.25;;;21.08;21.10
22031;BME280;11179;52.106;21.024;2023-05-11T07:18:27;101031.25;;;21.36;21.03
22031;BME280;11179;52.106;21.024;2023-05-11T07:20:53;101020.63;;;21.24;21.03
22031;BME280;11179;52.106;21.024;2023-05-11T07:23:18;101007.03;;;20.82;20.40
22031;BME280;11179;52.106;21.024;2023-05-11T07:25:43;101033.78;;;20.69;20.50
22031;BME280;11179;52.106;21.024;2023-05-11T07:28:09;101036.44;;;20.19;20.77
22031;BME280;11179;52.106;21.024;2023-05-11T07:30:34;101031.94;;;20.04;21.10
22031;BME280;11179;52.106;21.024;2023-05-11T07:33:00;101028.75;;;20.11;21.48
22031;BME280;11179;52.106;21.024;2023-05-11T07:35:26;101031.38;;;20.21;21.53
22031;BME280;11179;52.106;21.024;2023-05-11T07:37:51;101020.03;;;20.72;21.46
22031;BME280;11179;52.106;21.024;2023-05-11T07:40:17;101026.31;;;21.19;21.37
22031;BME280;11179;52.106;21.024;2023-05-11T07:42:42;101027.88;;;21.48;20.17
22031;BME280;11179;52.106;21.024;2023-05-11T07:45:08;101010.94;;;21.44;19.86
22031;BME280;11179;52.106;21.024;2023-05-11T07:47:33;101021.47;;;21.47;19.92
22031;BME280;11179;52.106;21.024;2023-05-11T07:49:58;101030.63;;;21.39;19.41
22031;BME280;11179;52.106;21.024;2023-05-11T07:52:24;101028.13;;;21.51;20.26
22031;BME280;11179;52.106;21.024;2023-05-11T07:54:49;101023.59;;;21.41;19.90
22031;BME280;11179;52.106;21.024;2023-05-11T07:57:15;101043.97;;;21.42;18.71
22031;BME280;11179;52.106;21.024;2023-05-11T07:59:40;101012.47;;;21.14;19.04
22031;BME280;11179;52.106;21.024;2023-05-11T08:02:06;101020.44;;;21.07;18.82
22031;BME280;11179;52.106;21.024;2023-05-11T08:04:33;101034.00;;;21.00;18.99
22031;BME280;11179;52.106;21.024;2023-05-11T08:06:58;101022.19;;;21.17;18.91
22031;BME280;11179;52.106;21.024;2023-05-11T08:09:24;101035.66;;;21.15;18.92
22031;BME280;11179;52.106;21.024;2023-05-11T08:11:50;101037.31;;;21.16;19.40
22031;BME280;11179;52.106;21.024;2023-05-11T08:14:15;101030.41;;;21.35;19.21
22031;BME280;11179;52.106;21.024;2023-05-11T08:16:41;101018.88;;;21.64;19.13
22031;BME280;11179;52.106;21.024;2023-05-11T08:19:07;101026.25;;;21.83;19.22
22031;BME280;11179;52.106;21.024;2023-05-11T08:21:32;101021.59;;;21.78;19.37
22031;BME280;11179;52.106;21.024;2023-05-11T08:23:58;101032.97;;;21.82;18.81
22031;BME280;11179;52.106;21.024;2023-05-11T08:26:23;101023.63;;;21.28;19.05
22031;BME280;11179;52.106;21.024;2023-05-11T08:28:49;101010.44;;;20.92;18.73
22031;BME280;11179;52.106;21.024;2023-05-11T08:31:16;101015.50;;;20.63;19.22
22031;BME280;11179;52.106;21.024;2023-05-11T08:33:42;101029.22;;;20.32;19.55
22031;BME280;11179;52.106;21.024;2023-05-11T08:36:08;100995.44;;;20.33;19.64
22031;BME280;11179;52.106;21.024;2023-05-11T08:38:34;101007.97;;;20.50;19.35
22031;BME280;11179;52.106;21.024;2023-05-11T08:41:01;101008.97;;;20.54;20.05
22031;BME280;11179;52.106;21.024;2023-05-11T08:43:27;100995.75;;;20.73;20.17
22031;BME280;11179;52.106;21.024;2023-05-11T08:45:56;101012.25;;;21.24;20.45
22031;BME280;11179;52.106;21.024;2023-05-11T08:48:21;101012.47;;;21.50;19.56
22031;BME280;11179;52.106;21.024;2023-05-11T08:50:48;101012.78;;;21.13;19.64
22031;BME280;11179;52.106;21.024;2023-05-11T08:53:13;101007.31;;;21.07;19.57
22031;BME280;11179;52.106;21.024;2023-05-11T08:55:39;101004.97;;;21.01;20.17
22031;BME280;11179;52.106;21.024;2023-05-11T08:58:06;101035.41;;;21.25;19.58
22031;BME280;11179;52.106;21.024;2023-05-11T09:00:32;101011.25;;;20.93;19.48
22031;BME280;11179;52.106;21.024;2023-05-11T09:02:58;101001.13;;;20.97;19.43
22031;BME280;11179;52.106;21.024;2023-05-11T09:05:24;101008.50;;;21.29;19.90
22031;BME280;11179;52.106;21.024;2023-05-11T09:07:54;101022.09;;;21.44;19.97
22031;BME280;11179;52.106;21.024;2023-05-11T09:10:21;100999.38;;;21.01;20.12
22031;BME280;11179;52.106;21.024;2023-05-11T09:12:46;100994.50;;;21.06;19.50
22031;BME280;11179;52.106;21.024;2023-05-11T09:15:11;101015.72;;;20.94;19.71
22031;BME280;11179;52.106;21.024;2023-05-11T09:17:37;101002.19;;;20.87;20.00
22031;BME280;11179;52.106;21.024;2023-05-11T09:20:05;101003.97;;;21.19;19.44
22031;BME280;11179;52.106;21.024;2023-05-11T09:22:41;100999.22;;;21.20;19.09
22031;BME280;11179;52.106;21.024;2023-05-11T09:25:10;101006.56;;;21.29;18.87
22031;BME280;11179;52.106;21.024;2023-05-11T09:27:40;100994.09;;;20.99;19.05
22031;BME280;11179;52.106;21.024;2023-05-11T09:35:27;100995.34;;;20.66;18.72
22031;BME280;11179;52.106;21.024;2023-05-11T09:38:07;100989.97;;;20.28;18.86
22031;BME280;11179;52.106;21.024;2023-05-11T09:40:53;100988.09;;;20.65;18.96
22031;BME280;11179;52.106;21.024;2023-05-11T09:43:22;101004.66;;;20.48;19.71
22031;BME280;11179;52.106;21.024;2023-05-11T09:45:50;100999.03;;;20.07;19.56
22031;BME280;11179;52.106;21.024;2023-05-11T09:50:42;100990.88;;;19.78;20.06
22031;BME280;11179;52.106;21.024;2023-05-11T09:53:08;100990.06;;;19.58;20.01
22031;BME280;11179;52.106;21.024;2023-05-11T09:55:34;100979.03;;;19.53;20.29
22031;BME280;11179;52.106;21.024;2023-05-11T09:57:59;100984.34;;;19.68;20.15
22031;BME280;11179;52.106;21.024;2023-05-11T10:00:25;100986.53;;;19.85;20.85
22031;BME280;11179;52.106;21.024;2023-05-11T10:03:00;100999.88;;;20.21;20.69
22031;BME280;11179;52.106;21.024;2023-05-11T10:05:27;100976.94;;;20.10;20.36
22031;BME280;11179;52.106;21.024;2023-05-11T10:08:01;100977.09;;;20.00;19.64
22031;BME280;11179;52.106;21.024;2023-05-11T10:10:29;100996.31;;;20.01;19.67
22031;BME280;11179;52.106;21.024;2023-05-11T10:12:57;100980.59;;;19.92;20.07
22031;BME280;11179;52.106;21.024;2023-05-11T10:15:23;100972.38;;;20.00;20.71
22031;BME280;11179;52.106;21.024;2023-05-11T10:17:56;100972.75;;;19.94;20.83
22031;BME280;11179;52.106;21.024;2023-05-11T10:20:23;100991.91;;;19.82;20.80
22031;BME280;11179;52.106;21.024;2023-05-11T10:22:53;100979.13;;;19.81;21.48
22031;BME280;11179;52.106;21.024;2023-05-11T10:25:48;100934.69;;;19.70;21.53
22031;BME280;11179;52.106;21.024;2023-05-11T10:28:14;100964.66;;;19.79;21.17
22031;BME280;11179;52.106;21.024;2023-05-11T10:30:40;100976.94;;;19.78;21.25
22031;BME280;11179;52.106;21.024;2023-05-11T10:33:07;100956.09;;;19.43;21.23
22031;BME280;11179;52.106;21.024;2023-05-11T10:35:36;100958.34;;;19.41;21.98
22031;BME280;11179;52.106;21.024;2023-05-11T10:54:05;100944.41;;;19.73;22.68
22031;BME280;11179;52.106;21.024;2023-05-11T10:56:51;100920.41;;;19.58;21.33
22031;BME280;11179;52.106;21.024;2023-05-11T10:59:44;100951.84;;;19.78;22.21
22031;BME280;11179;52.106;21.024;2023-05-11T11:02:15;100947.75;;;19.89;22.18
22031;BME280;11179;52.106;21.024;2023-05-11T11:04:49;100953.16;;;19.66;21.78
22031;BME280;11179;52.106;21.024;2023-05-11T11:07:16;100937.31;;;19.48;22.00
22031;BME280;11179;52.106;21.024;2023-05-11T11:10:01;100940.44;;;19.60;22.16
22031;BME280;11179;52.106;21.024;2023-05-11T11:12:31;100943.34;;;19.55;21.88
22031;BME280;11179;52.106;21.024;2023-05-11T11:15:08;100930.28;;;19.69;22.04
22031;BME280;11179;52.106;21.024;2023-05-11T11:17:34;100936.31;;;19.58;22.29
22031;BME280;11179;52.106;21.024;2023-05-11T11:20:04;100927.91;;;19.77;22.30
22031;BME280;11179;52.106;21.024;2023-05-11T11:24:58;100931.50;;;19.45;21.92
22031;BME280;11179;52.106;21.024;2023-05-11T11:30:17;100947.94;;;19.46;23.42
22031;BME280;11179;52.106;21.024;2023-05-11T11:32:43;100937.88;;;19.64;22.87
22031;BME280;11179;52.106;21.024;2023-05-11T11:38:13;100938.84;;;19.22;22.07
22031;BME280;11179;52.106;21.024;2023-05-11T11:40:49;100932.97;;;19.42;23.17
22031;BME280;11179;52.106;21.024;2023-05-11T11:43:24;100930.34;;;19.64;22.89
22031;BME280;11179;52.106;21.024;2023-05-11T11:45:50;100939.13;;;19.72;22.33
22031;BME280;11179;52.106;21.024;2023-05-11T11:48:32;100933.84;;;19.56;22.75
22031;BME280;11179;52.106;21.024;2023-05-11T11:58:56;100927.94;;;19.25;22.26
22031;BME280;11179;52.106;21.024;2023-05-11T12:01:28;100921.03;;;19.23;23.91
22031;BME280;11179;52.106;21.024;2023-05-11T12:04:22;100919.59;;;19.25;22.97
22031;BME280;11179;52.106;21.024;2023-05-11T12:06:57;100933.34;;;19.36;23.06
22031;BME280;11179;52.106;21.024;2023-05-11T12:09:25;100934.72;;;19.19;22.61
22031;BME280;11179;52.106;21.024;2023-05-11T12:11:51;100932.38;;;19.08;24.21
22031;BME280;11179;52.106;21.024;2023-05-11T12:14:16;100940.28;;;19.19;23.74
22031;BME280;11179;52.106;21.024;2023-05-11T12:16:42;100942.38;;;19.09;23.28
22031;BME280;11179;52.106;21.024;2023-05-11T12:19:07;100928.31;;;19.00;23.46
22031;BME280;11179;52.106;21.024;2023-05-11T12:21:33;100935.69;;;19.10;23.32
22031;BME280;11179;52.106;21.024;2023-05-11T12:24:00;100937.75;;;19.18;23.62
22031;BME280;11179;52.106;21.024;2023-05-11T12:26:27;100916.25;;;19.05;23.36
22031;BME280;11179;52.106;21.024;2023-05-11T12:29:25;100927.94;;;19.07;23.16
22031;BME280;11179;52.106;21.024;2023-05-11T12:31:50;100928.31;;;19.00;22.71
22031;BME280;11179;52.106;21.024;2023-05-11T12:34:20;100918.66;;;18.92;23.17
22031;BME280;11179;52.106;21.024;2023-05-11T12:36:51;100921.16;;;18.94;23.05
22031;BME280;11179;52.106;21.024;2023-05-11T12:39:21;100922.19;;;18.79;23.15
22031;BME280;11179;52.106;21.024;2023-05-11T12:41:48;100919.50;;;18.74;23.50
22031;BME280;11179;52.106;21.024;2023-05-11T12:44:15;100900.78;;;18.61;23.52
22031;BME280;11179;52.106;21.024;2023-05-11T12:46:42;100896.19;;;18.70;23.78
22031;BME280;11179;52.106;21.024;2023-05-11T12:49:08;100912.91;;;18.89;24.10
22031;BME280;11179;52.106;21.024;2023-05-11T12:54:08;100896.28;;;19.03;24.12
22031;BME280;11179;52.106;21.024;2023-05-11T12:56:49;100894.63;;;19.02;24.14
22031;BME280;11179;52.106;21.024;2023-05-11T13:01:52;100882.50;;;18.92;23.79
22031;BME280;11179;52.106;21.024;2023-05-11T13:04:17;100855.53;;;18.74;24.00
22031;BME280;11179;52.106;21.024;2023-05-11T13:06:45;100888.09;;;18.74;23.39
22031;BME280;11179;52.106;21.024;2023-05-11T13:09:21;100892.97;;;18.63;23.94
22031;BME280;11179;52.106;21.024;2023-05-11T13:11:46;100885.22;;;18.79;24.47
22031;BME280;11179;52.106;21.024;2023-05-11T13:14:15;100889.06;;;19.02;24.66
22031;BME280;11179;52.106;21.024;2023-05-11T13:16:51;100889.59;;;19.04;23.98
22031;BME280;11179;52.106;21.024;2023-05-11T13:19:26;100874.72;;;18.76;23.76
22031;BME280;11179;52.106;21.024;2023-05-11T13:21:52;100880.09;;;18.67;23.63
22031;BME280;11179;52.106;21.024;2023-05-11T13:24:22;100865.28;;;18.53;23.85
22031;BME280;11179;52.106;21.024;2023-05-11T13:26:47;100875.91;;;18.70;23.63
22031;BME280;11179;52.106;21.024;2023-05-11T13:29:13;100871.16;;;18.70;24.10
22031;BME280;11179;52.106;21.024;2023-05-11T13:31:46;100876.38;;;18.77;23.97
22031;BME280;11179;52.106;21.024;2023-05-11T13:34:11;100878.53;;;18.80;23.99
22031;BME280;11179;52.106;21.024;2023-05-11T13:36:37;100863.19;;;18.82;25.75
22031;BME280;11179;52.106;21.024;2023-05-11T13:39:03;100872.50;;;18.91;25.31